Time;durP1;ratioP1;P1;durP2;ratioP2;P2;SDS_P1;SDS_P2;PMS_P1;PMS_P2;Temp;Humidity;BMP_temperature;BMP_pressure;BME280_temperature;BME280_humidity;BME280_pressure;Samples;Min_cycle;Max_cycle;Signal;HPM_P1;HPM_P2
2022/01/26 00:06:36;;;;;;;;;46.25;29.00;;;;;4.92;68.30;103201.28;5098455;27;45442;-76
2022/01/26 00:09:01;;;;;;;;;47.00;29.50;;;;;4.91;68.54;103197.75;5099658;27;45523;-76
2022/01/26 00:11:27;;;;;;;;;56.25;35.25;;;;;4.93;68.48;103206.63;5099022;27;45468;-77
2022/01/26 00:13:53;;;;;;;;;35.00;27.00;;;;;4.98;68.06;103210.47;5099125;27;46633;-77
2022/01/26 00:16:26;;;;;;;;;45.25;35.75;;;;;5.00;68.12;103210.59;5099280;27;45366;-77
2022/01/26 00:18:55;;;;;;;;;44.75;33.00;;;;;5.01;68.55;103215.06;5099197;27;45341;-77
2022/01/26 00:21:47;;;;;;;;;48.50;32.50;;;;;5.00;68.02;103213.19;5099042;27;45215;-76
2022/01/26 00:24:22;;;;;;;;;49.25;29.25;;;;;5.02;68.61;103210.72;5083019;27;47030;-76
2022/01/26 00:29:32;;;;;;;;;44.25;32.25;;;;;4.94;68.35;103200.59;5099114;27;45345;-78
2022/01/26 00:42:49;;;;;;;;;43.25;28.75;;;;;5.07;68.41;103222.44;5098835;27;45257;-77
2022/01/26 00:45:20;;;;;;;;;27.50;22.00;;;;;5.06;68.68;103218.91;5099015;27;46377;-76
2022/01/26 00:47:45;;;;;;;;;40.75;29.00;;;;;5.00;68.47;103195.78;5081192;27;45422;-77
2022/01/26 00:50:11;;;;;;;;;44.50;26.50;;;;;5.09;68.58;103215.59;5098252;27;45479;-77
2022/01/26 00:52:42;;;;;;;;;33.75;28.00;;;;;5.06;68.45;103215.34;5097708;27;45603;-76
2022/01/26 00:55:09;;;;;;;;;38.75;30.50;;;;;5.05;68.54;103217.06;5097873;27;46583;-77
2022/01/26 00:57:35;;;;;;;;;49.00;29.00;;;;;5.07;68.40;103218.09;5097621;27;45308;-76
2022/01/26 01:00:00;;;;;;;;;45.00;30.50;;;;;5.06;68.70;103210.09;5097910;27;45985;-76
2022/01/26 01:02:26;;;;;;;;;46.50;30.00;;;;;5.11;68.78;103209.63;5080557;27;45641;-77
2022/01/26 01:04:52;;;;;;;;;35.00;24.50;;;;;5.10;68.14;103204.31;5097312;27;46233;-76
2022/01/26 01:07:21;;;;;;;;;41.25;28.00;;;;;5.15;68.42;103213.41;5095189;27;46646;-77
2022/01/26 01:09:47;;;;;;;;;42.50;30.00;;;;;5.17;68.41;103212.72;5097261;27;45635;-76
2022/01/26 01:12:12;;;;;;;;;42.50;28.25;;;;;5.18;68.27;103208.38;5098220;27;45579;-77
2022/01/26 01:14:41;;;;;;;;;35.25;25.25;;;;;5.14;68.18;103199.41;5097984;27;46941;-77
2022/01/26 01:17:09;;;;;;;;;44.25;31.75;;;;;5.12;68.40;103195.78;5096940;27;45640;-76
2022/01/26 01:19:41;;;;;;;;;41.75;25.50;;;;;5.16;68.02;103200.41;5080106;27;45525;-77
2022/01/26 01:25:45;;;;;;;;;41.00;31.00;;;;;5.19;67.98;103205.88;5066031;27;45925;-77
2022/01/26 01:30:49;;;;;;;;;36.00;30.00;;;;;5.24;67.95;103220.19;5098254;27;45227;-76
2022/01/26 01:33:19;;;;;;;;;32.75;28.75;;;;;5.25;67.88;103213.25;5098663;27;45444;-78
2022/01/26 01:35:46;;;;;;;;;42.00;30.00;;;;;5.21;67.72;103205.97;5097699;27;45734;-76
2022/01/26 01:38:20;;;;;;;;;37.50;27.25;;;;;5.27;67.69;103214.25;5097111;27;45457;-77
2022/01/26 01:40:49;;;;;;;;;40.25;31.00;;;;;5.28;67.76;103204.72;5097705;27;45514;-77
2022/01/26 01:43:16;;;;;;;;;38.00;29.00;;;;;5.29;67.81;103211.78;5097225;27;45548;-76
2022/01/26 01:45:45;;;;;;;;;43.00;30.25;;;;;5.29;67.88;103212.69;5096610;27;45733;-76
2022/01/26 01:48:12;;;;;;;;;48.75;31.25;;;;;5.30;67.89;103217.09;5097046;27;45281;-77
2022/01/26 01:50:41;;;;;;;;;44.75;28.50;;;;;5.32;67.69;103231.22;5096667;27;45505;-77
2022/01/26 01:53:08;;;;;;;;;45.25;29.50;;;;;5.32;67.70;103231.22;5097283;27;45472;-77
2022/01/26 01:55:33;;;;;;;;;22.50;13.00;;;;;5.32;67.67;103230.31;5097365;27;46571;-78
2022/01/26 01:57:59;;;;;;;;;40.00;30.25;;;;;5.33;67.71;103226.91;5095989;27;50044;-77
2022/01/26 02:00:25;;;;;;;;;39.75;30.75;;;;;5.33;67.23;103232.16;5094725;27;45570;-78
2022/01/26 02:02:50;;;;;;;;;34.75;26.75;;;;;5.28;67.28;103215.19;5078814;27;45523;-76
2022/01/26 02:05:16;;;;;;;;;37.25;31.50;;;;;5.31;67.11;103229.41;5096044;27;47302;-77
2022/01/26 02:07:41;;;;;;;;;33.75;26.25;;;;;5.33;67.18;103235.69;5096387;27;45517;-78
2022/01/26 02:10:07;;;;;;;;;39.25;26.00;;;;;5.33;67.46;103232.16;5095527;27;54687;-77
2022/01/26 02:12:35;;;;;;;;;36.75;23.75;;;;;5.35;67.38;103233.16;5103475;27;45542;-76
2022/01/26 02:15:10;;;;;;;;;36.50;26.50;;;;;5.37;67.19;103227.19;5095926;27;45730;-78
2022/01/26 02:53:17;;;;;;;;;31.50;23.75;;;;;5.45;66.81;103219.91;5096472;27;45525;-77
2022/01/26 02:55:52;;;;;;;;;38.75;25.50;;;;;5.48;66.68;103222.72;5095035;27;45474;-77
2022/01/26 03:01:41;;;;;;;;;37.75;25.75;;;;;5.49;66.50;103206.22;5096725;27;45348;-76
2022/01/26 03:04:01;;;;;;;;;34.50;28.25;;;;;5.50;66.59;103203.69;5093771;27;45475;-76
2022/01/26 03:06:35;;;;;;;;;43.75;29.75;;;;;5.51;67.01;103207.22;5095391;27;45486;-77
2022/01/26 03:09:10;;;;;;;;;38.25;30.00;;;;;5.50;66.77;103201.06;5096404;27;46149;-77
2022/01/26 03:11:38;;;;;;;;;40.25;23.75;;;;;5.51;66.68;103196.75;5096748;27;45722;-76
2022/01/26 03:14:15;;;;;;;;;46.75;29.50;;;;;5.50;66.80;103193.22;5094759;27;45594;-78
2022/01/26 03:16:46;;;;;;;;;37.75;26.50;;;;;5.52;66.96;103190.69;5095527;27;45603;-76
2022/01/26 03:35:04;;;;;;;;;29.75;26.00;;;;;5.58;66.64;103182.34;5095651;27;45299;-76
2022/01/26 03:37:37;;;;;;;;;47.00;31.50;;;;;5.59;66.85;103185.06;5093758;27;45587;-78
2022/01/26 03:40:11;;;;;;;;;43.25;29.75;;;;;5.62;66.66;103185.28;5091191;27;47777;-76
2022/01/26 03:42:37;;;;;;;;;40.00;29.50;;;;;5.59;66.59;103177.19;5091687;27;45514;-77
2022/01/26 03:45:02;;;;;;;;;45.25;31.00;;;;;5.62;66.50;103177.44;5095188;27;45418;-77
2022/01/26 03:47:28;;;;;;;;;47.75;29.75;;;;;5.65;66.49;103198.63;5095148;27;45227;-76
2022/01/26 03:49:53;;;;;;;;;45.50;31.00;;;;;5.66;66.63;103192.56;5094188;27;61998;-78
2022/01/26 03:52:18;;;;;;;;;33.75;26.00;;;;;5.66;66.32;103196.91;5074832;27;56651;-77
2022/01/26 03:54:44;;;;;;;;;39.50;27.75;;;;;5.69;66.50;103189.22;5076582;27;45689;-77
2022/01/26 03:57:09;;;;;;;;;43.25;30.75;;;;;5.65;66.36;103185.50;5093397;27;52333;-78
2022/01/26 03:59:35;;;;;;;;;36.00;27.75;;;;;5.70;66.09;103196.28;5076321;27;49653;-77
2022/01/26 04:02:00;;;;;;;;;43.00;34.50;;;;;5.69;66.25;103191.84;5094369;27;61280;-78
2022/01/26 04:04:25;;;;;;;;;43.00;31.50;;;;;5.70;66.36;103178.88;5094797;27;45858;-77
2022/01/26 04:06:51;;;;;;;;;45.00;35.75;;;;;5.73;66.31;103192.16;5094092;27;45516;-76
2022/01/26 04:09:18;;;;;;;;;47.75;32.75;;;;;5.72;66.27;103190.34;5095183;27;46310;-77
2022/01/26 04:11:47;;;;;;;;;52.25;37.25;;;;;5.70;66.12;103178.88;5094849;27;45672;-77
2022/01/26 04:14:16;;;;;;;;;48.25;32.25;;;;;5.69;66.24;103177.03;5093151;27;45453;-77
2022/01/26 04:16:42;;;;;;;;;36.75;27.25;;;;;5.76;66.38;103189.78;5082740;27;45524;-77
2022/01/26 04:19:07;;;;;;;;;39.75;31.75;;;;;5.76;65.78;103176.66;5094612;27;46689;-78
2022/01/26 04:24:14;;;;;;;;;50.25;36.25;;;;;5.73;65.94;103171.19;5095083;27;45523;-78
2022/01/26 04:29:13;;;;;;;;;44.75;37.25;;;;;5.79;66.02;103181.19;5092473;27;45627;-77
2022/01/26 04:31:39;;;;;;;;;45.25;33.25;;;;;5.81;66.21;103182.22;5096105;27;45469;-76
2022/01/26 04:34:04;;;;;;;;;33.50;28.50;;;;;5.83;65.78;103171.84;5098478;27;45576;-76
2022/01/26 04:36:39;;;;;;;;;57.25;36.00;;;;;5.83;65.98;103177.06;5098023;27;45543;-76
2022/01/26 04:39:09;;;;;;;;;46.50;36.75;;;;;5.83;65.92;103180.59;5096352;27;46999;-77
2022/01/26 04:41:45;;;;;;;;;45.00;35.25;;;;;5.78;66.11;103167.19;5098404;27;45545;-76
2022/01/26 04:44:21;;;;;;;;;52.50;39.00;;;;;5.83;66.25;103172.75;5095697;27;45642;-76
2022/01/26 04:46:46;;;;;;;;;43.75;36.25;;;;;5.79;66.01;103158.50;5095373;27;45393;-77
2022/01/26 04:49:12;;;;;;;;;44.00;34.00;;;;;5.87;65.93;103177.41;5097740;27;46386;-78
2022/01/26 04:51:37;;;;;;;;;52.50;37.25;;;;;5.90;65.68;103181.91;5095901;27;59054;-76
2022/01/26 04:54:02;;;;;;;;;48.00;32.25;;;;;5.91;65.71;103173.25;5096975;27;45508;-77
2022/01/26 04:56:28;;;;;;;;;50.25;36.50;;;;;5.90;65.54;103168.81;5097529;27;45400;-77
2022/01/26 04:58:53;;;;;;;;;56.00;39.75;;;;;5.91;65.81;103175.88;5097166;27;62434;-77
2022/01/26 05:01:19;;;;;;;;;57.75;38.75;;;;;5.91;65.75;103176.84;5071181;27;53210;-78
2022/01/26 05:03:44;;;;;;;;;57.75;40.00;;;;;5.90;65.53;103176.69;5097232;27;55254;-77
2022/01/26 05:06:09;;;;;;;;;52.00;36.00;;;;;5.91;65.68;103170.63;5094979;27;50110;-78
2022/01/26 05:08:36;;;;;;;;;53.50;39.25;;;;;5.90;65.77;103163.56;5097636;27;46308;-77
2022/01/26 05:11:02;;;;;;;;;55.25;40.00;;;;;5.88;65.52;103157.31;5095721;27;45311;-76
2022/01/26 05:13:28;;;;;;;;;54.00;40.50;;;;;5.91;65.70;103173.25;5096105;27;45552;-77
2022/01/26 05:15:53;;;;;;;;;52.00;42.50;;;;;5.92;65.68;103178.66;5097787;27;45655;-76
2022/01/26 05:18:18;;;;;;;;;70.25;47.75;;;;;5.93;65.66;103171.69;5097609;27;50822;-76
2022/01/26 05:20:44;;;;;;;;;65.25;40.50;;;;;5.91;65.48;103174.22;5098694;27;45497;-77
2022/01/26 05:23:09;;;;;;;;;54.75;43.25;;;;;5.90;65.65;103169.72;5097655;27;48560;-77
2022/01/26 05:25:35;;;;;;;;;65.00;43.00;;;;;5.90;65.30;103167.09;5098357;27;45614;-77
2022/01/26 05:28:00;;;;;;;;;61.50;42.75;;;;;5.90;65.49;103163.56;5096528;27;63097;-76
2022/01/26 05:30:27;;;;;;;;;66.25;45.00;;;;;5.88;65.29;103162.56;5097868;27;45634;-76
2022/01/26 05:32:52;;;;;;;;;59.50;42.00;;;;;5.91;65.24;103160.13;5096828;27;45426;-77
2022/01/26 05:35:18;;;;;;;;;49.00;39.25;;;;;5.90;65.38;103153.06;5094128;27;45492;-77
2022/01/26 05:37:43;;;;;;;;;63.50;44.25;;;;;5.89;65.37;103149.56;5095389;27;57575;-77
2022/01/26 05:40:09;;;;;;;;;61.75;43.00;;;;;5.90;65.30;103153.06;5096028;27;45473;-77
2022/01/26 05:42:36;;;;;;;;;67.25;44.75;;;;;5.90;65.15;103146.13;5097301;27;45508;-77
2022/01/26 05:45:05;;;;;;;;;57.75;42.00;;;;;5.87;64.98;103145.03;5096887;27;45484;-78
2022/01/26 05:47:32;;;;;;;;;62.25;44.00;;;;;5.91;65.42;103166.34;5096634;27;46719;-77
2022/01/26 05:49:58;;;;;;;;;65.25;46.50;;;;;5.93;65.12;103156.88;5098188;27;45270;-77
2022/01/26 05:52:24;;;;;;;;;60.25;42.25;;;;;5.94;65.29;103156.06;5096445;27;45410;-77
2022/01/26 05:54:49;;;;;;;;;66.75;43.75;;;;;5.97;65.29;103158.00;5097579;27;45388;-77
2022/01/26 05:57:15;;;;;;;;;67.00;44.00;;;;;5.98;65.13;103160.69;5096607;27;61401;-77
2022/01/26 05:59:40;;;;;;;;;67.50;40.75;;;;;5.99;65.28;103161.59;5096776;27;55895;-76
2022/01/26 06:02:05;;;;;;;;;61.25;45.25;;;;;5.99;65.00;103159.88;5097391;27;45714;-76
2022/01/26 06:04:31;;;;;;;;;63.25;46.00;;;;;6.00;64.89;103168.66;5094561;27;45445;-76
2022/01/26 06:06:57;;;;;;;;;60.00;40.50;;;;;5.97;64.73;103166.75;5092839;27;45866;-76
2022/01/26 06:09:22;;;;;;;;;59.00;42.00;;;;;6.03;64.82;103166.25;5096531;27;45487;-76
2022/01/26 06:11:48;;;;;;;;;61.25;46.50;;;;;5.98;64.91;103152.84;5097464;27;45222;-76
2022/01/26 06:14:13;;;;;;;;;59.50;44.75;;;;;6.03;64.76;103167.16;5095858;27;45633;-76
2022/01/26 06:16:39;;;;;;;;;67.75;44.50;;;;;6.03;64.85;103166.25;5096953;27;58268;-77
2022/01/26 06:19:04;;;;;;;;;62.00;43.50;;;;;6.05;64.88;103169.88;5096875;27;45536;-76
2022/01/26 06:21:29;;;;;;;;;67.25;47.00;;;;;6.07;64.94;103177.84;5097249;27;56349;-76
2022/01/26 06:23:55;;;;;;;;;64.00;48.50;;;;;6.07;64.84;103177.84;5096514;27;45535;-77
2022/01/26 06:26:20;;;;;;;;;67.25;44.75;;;;;6.09;64.78;103181.50;5096327;27;46215;-76
2022/01/26 06:28:46;;;;;;;;;62.25;43.00;;;;;6.08;64.67;103188.47;5095918;27;45390;-76
2022/01/26 06:31:14;;;;;;;;;63.50;44.75;;;;;6.09;64.79;103189.38;5095620;27;45464;-76
2022/01/26 06:33:41;;;;;;;;;66.50;48.00;;;;;6.06;65.01;103189.16;5097386;27;45322;-76
2022/01/26 06:36:06;;;;;;;;;60.25;45.75;;;;;6.11;64.63;103196.50;5095850;27;47664;-76
2022/01/26 06:38:31;;;;;;;;;68.25;45.00;;;;;6.11;64.59;103203.47;5087407;27;45567;-77
2022/01/26 06:40:58;;;;;;;;;63.75;40.75;;;;;6.11;64.84;103208.72;5093938;27;45381;-77
2022/01/26 06:43:26;;;;;;;;;69.25;42.50;;;;;6.12;64.51;103219.31;5095185;27;45478;-76
2022/01/26 06:45:57;;;;;;;;;67.25;46.25;;;;;6.13;64.78;103217.63;5096487;27;45736;-76
2022/01/26 06:49:28;;;;;;;;;59.25;46.00;;;;;6.12;64.71;103218.41;5085463;27;45549;-76
2022/01/26 06:51:12;;;;;;;;;60.50;42.50;;;;;6.16;64.75;103230.94;5081987;27;45426;-77
2022/01/26 06:53:37;;;;;;;;;64.25;45.25;;;;;6.15;64.51;103230.03;5093950;27;45568;-76
2022/01/26 06:56:03;;;;;;;;;63.50;45.75;;;;;6.17;64.35;103231.03;5094749;27;46434;-76
2022/01/26 06:58:28;;;;;;;;;65.25;44.75;;;;;6.19;64.32;103233.78;5094618;27;45572;-77
2022/01/26 07:00:54;;;;;;;;;69.25;47.75;;;;;6.18;64.39;103226.69;5092653;27;56672;-76
2022/01/26 07:03:19;;;;;;;;;63.75;43.25;;;;;6.18;64.17;103227.63;5094214;27;45636;-76
2022/01/26 07:05:44;;;;;;;;;68.00;42.25;;;;;6.19;64.59;103229.44;5094635;27;45517;-77
2022/01/26 07:08:10;;;;;;;;;63.75;45.50;;;;;6.21;64.22;103232.16;5091109;27;45409;-75
2022/01/26 07:10:35;;;;;;;;;66.25;43.00;;;;;6.21;64.18;103216.41;5095004;27;45391;-76
2022/01/26 07:13:02;;;;;;;;;67.75;44.50;;;;;6.17;64.51;103210.03;5095280;27;45303;-76
2022/01/26 07:23:29;;;;;;;;;59.50;42.00;;;;;6.22;64.25;103208.63;5094209;27;45551;-76
2022/01/26 07:25:54;;;;;;;;;61.25;43.25;;;;;6.24;63.84;103212.28;5093047;27;63065;-75
2022/01/26 07:28:20;;;;;;;;;67.25;47.50;;;;;6.25;63.99;103214.09;5090883;27;64152;-78
2022/01/26 07:30:45;;;;;;;;;60.75;44.00;;;;;6.26;63.89;103220.25;5095166;27;45515;-76
2022/01/26 07:33:11;;;;;;;;;51.00;40.00;;;;;6.26;64.01;103226.41;5095710;27;45600;-77
2022/01/26 07:35:36;;;;;;;;;62.00;44.00;;;;;6.28;64.03;103226.50;5091979;27;46374;-78
2022/01/26 07:38:03;;;;;;;;;60.50;44.50;;;;;6.29;64.09;103229.25;5094528;27;46352;-78
2022/01/26 07:40:29;;;;;;;;;63.50;45.00;;;;;6.27;64.05;103215.09;5094047;27;45607;-77
2022/01/26 07:42:54;;;;;;;;;61.25;44.50;;;;;6.29;64.10;103220.47;5091525;27;45544;-78
2022/01/26 07:45:20;;;;;;;;;64.75;46.00;;;;;6.29;64.13;103221.38;5091920;27;62557;-78
2022/01/26 07:47:46;;;;;;;;;64.25;47.00;;;;;6.30;64.11;103233.69;5094558;27;45735;-77
2022/01/26 07:50:12;;;;;;;;;65.75;47.50;;;;;6.32;64.16;103231.16;5093477;27;45543;-78
2022/01/26 07:52:38;;;;;;;;;68.00;50.00;;;;;6.34;64.26;103234.81;5093456;27;45876;-77
2022/01/26 07:55:05;;;;;;;;;71.75;49.00;;;;;6.36;64.14;103234.88;5093060;27;47404;-78
2022/01/26 07:57:31;;;;;;;;;60.75;38.75;;;;;6.37;64.01;103250.72;5092796;27;45819;-78
2022/01/26 07:59:56;;;;;;;;;61.00;44.00;;;;;6.36;63.97;103245.38;5094667;27;45341;-77
2022/01/26 08:02:22;;;;;;;;;65.50;45.75;;;;;6.38;64.02;103242.03;5076155;27;45632;-77
2022/01/26 08:04:47;;;;;;;;;64.50;45.00;;;;;6.36;63.97;103222.69;5092948;27;46430;-77
2022/01/26 08:07:13;;;;;;;;;61.50;44.00;;;;;6.41;63.67;103216.03;5090468;27;45515;-77
2022/01/26 08:09:43;;;;;;;;;69.00;45.75;;;;;6.41;63.82;103207.25;5094393;27;45851;-76
2022/01/26 08:12:12;;;;;;;;;60.25;49.50;;;;;6.42;63.89;103209.06;5089878;27;45437;-78
2022/01/26 08:14:37;;;;;;;;;63.75;47.50;;;;;6.38;63.69;103210.56;5094894;27;46452;-77
2022/01/26 08:17:04;;;;;;;;;55.00;41.25;;;;;6.44;63.76;103218.81;5086550;27;50850;-77
2022/01/26 08:19:29;;;;;;;;;54.50;41.00;;;;;6.47;63.67;103213.78;5093445;27;45542;-77
2022/01/26 08:21:59;;;;;;;;;73.00;48.75;;;;;6.45;63.86;103193.53;5091369;27;54807;-77
2022/01/26 08:24:25;;;;;;;;;57.50;41.00;;;;;6.50;63.29;103199.97;5091846;27;47418;-77
2022/01/26 08:26:50;;;;;;;;;51.25;39.25;;;;;6.52;63.58;103209.75;5090938;27;45469;-75
2022/01/26 08:29:26;;;;;;;;;63.75;45.75;;;;;6.56;63.63;103216.13;5092980;27;45445;-76
2022/01/26 08:31:51;;;;;;;;;61.50;41.75;;;;;6.57;63.65;103215.31;5089544;27;45431;-76
2022/01/26 08:34:17;;;;;;;;;65.50;47.00;;;;;6.56;63.36;103200.38;5091070;27;63020;-79
2022/01/26 08:36:42;;;;;;;;;64.00;39.75;;;;;6.57;63.24;103192.59;5070359;27;45586;-77
2022/01/26 08:39:08;;;;;;;;;56.75;43.00;;;;;6.61;63.48;103206.84;5229562;22;45476;-77
2022/01/26 08:41:33;;;;;;;;;65.25;44.25;;;;;6.64;63.51;103219.25;5110381;27;45969;-78
2022/01/26 08:43:59;;;;;;;;;64.75;46.75;;;;;6.65;63.47;103221.97;5092023;27;64834;-75
2022/01/26 08:46:24;;;;;;;;;67.25;47.00;;;;;6.67;63.54;103214.19;5108367;27;59530;-76
2022/01/26 08:48:50;;;;;;;;;66.00;43.50;;;;;6.70;63.11;103225.78;5110194;27;45785;-76
2022/01/26 08:51:15;;;;;;;;;60.75;44.25;;;;;6.72;63.43;103236.41;5118923;27;45545;-75
2022/01/26 08:53:41;;;;;;;;;69.75;48.50;;;;;6.74;63.24;103240.03;5112825;27;46739;-76
2022/01/26 08:56:06;;;;;;;;;73.75;46.75;;;;;6.71;63.20;103234.56;5113000;27;45555;-76
2022/01/26 08:58:31;;;;;;;;;64.00;43.75;;;;;6.76;63.11;103238.41;5090765;27;45950;-77
2022/01/26 09:00:57;;;;;;;;;58.50;43.75;;;;;6.76;63.40;103238.41;5113781;27;52672;-75
2022/01/26 09:03:22;;;;;;;;;58.75;39.50;;;;;6.75;62.98;103232.25;5091944;27;47311;-79
2022/01/26 09:05:48;;;;;;;;;59.50;40.50;;;;;6.79;63.10;103244.78;5111522;27;57321;-75
2022/01/26 09:08:14;;;;;;;;;55.75;41.50;;;;;6.81;63.47;103239.63;5114067;27;45442;-77
2022/01/26 09:10:40;;;;;;;;;59.00;38.00;;;;;6.75;62.92;103237.50;5111198;27;45581;-76
2022/01/26 09:13:05;;;;;;;;;71.75;45.00;;;;;6.82;63.25;103252.88;5098476;27;47495;-75
2022/01/26 09:15:32;;;;;;;;;59.25;41.75;;;;;6.84;63.24;103260.84;5110875;27;45419;-75
2022/01/26 09:17:59;;;;;;;;;62.25;42.25;;;;;6.86;63.31;103266.19;5115367;27;45473;-76
2022/01/26 09:20:25;;;;;;;;;65.50;43.25;;;;;6.87;63.19;103266.31;5112712;27;45459;-76
2022/01/26 09:22:50;;;;;;;;;63.00;45.75;;;;;6.85;63.12;103265.28;5113960;27;46410;-76
2022/01/26 09:25:15;;;;;;;;;55.75;42.25;;;;;6.91;63.19;103267.38;5108246;27;59898;-77
2022/01/26 09:27:41;;;;;;;;;60.00;41.25;;;;;6.90;63.04;103269.09;5103346;27;54332;-77
2022/01/26 09:30:07;;;;;;;;;60.00;41.00;;;;;6.90;63.02;103268.19;5110652;27;45592;-76
2022/01/26 09:32:33;;;;;;;;;71.25;43.00;;;;;6.95;62.99;103266.78;5107835;27;46918;-77
2022/01/26 09:34:58;;;;;;;;;61.00;43.50;;;;;6.95;63.26;103267.69;5100172;27;59798;-75
2022/01/26 09:37:24;;;;;;;;;47.50;33.00;;;;;6.99;63.24;103266.19;5113205;27;45579;-78
2022/01/26 09:39:49;;;;;;;;;55.75;38.50;;;;;6.96;62.99;103255.47;5107604;27;49233;-77
2022/01/26 09:42:15;;;;;;;;;62.50;40.00;;;;;7.04;62.89;103275.25;5112180;27;47710;-77
2022/01/26 09:44:41;;;;;;;;;45.75;35.00;;;;;7.04;63.35;103276.16;5109047;27;45403;-78
2022/01/26 09:47:07;;;;;;;;;54.50;38.00;;;;;7.05;62.84;103266.56;5110124;27;45496;-77
2022/01/26 09:49:33;;;;;;;;;65.00;42.00;;;;;7.02;63.09;103276.88;5092208;27;45545;-77
2022/01/26 09:52:06;;;;;;;;;58.00;39.75;;;;;7.05;62.85;103283.25;5091657;27;45793;-78
2022/01/26 09:54:32;;;;;;;;;65.25;41.75;;;;;7.08;63.10;103293.97;5107700;27;45580;-77
2022/01/26 09:57:03;;;;;;;;;64.00;45.25;;;;;7.11;62.95;103292.31;5110093;27;45545;-77
2022/01/26 09:59:28;;;;;;;;;55.25;42.25;;;;;7.05;62.83;103279.72;5103836;27;45614;-77
2022/01/26 10:01:54;;;;;;;;;58.00;41.50;;;;;7.12;62.85;103299.38;5085139;27;46660;-80
2022/01/26 10:04:35;;;;;;;;;61.25;43.00;;;;;7.13;62.86;103288.97;5087034;27;45588;-79
2022/01/26 10:10:18;;;;;;;;;60.25;41.00;;;;;7.15;62.39;103283.84;5106636;27;45196;-78
2022/01/26 10:15:37;;;;;;;;;56.25;43.00;;;;;7.17;62.38;103295.34;5099405;27;45754;-76
2022/01/26 10:18:12;;;;;;;;;65.00;41.75;;;;;7.16;62.81;103297.06;5110201;27;45525;-78
2022/01/26 10:20:45;;;;;;;;;65.00;44.50;;;;;7.17;62.63;103287.47;5082314;27;45648;-80
2022/01/26 10:23:18;;;;;;;;;74.00;51.00;;;;;7.15;62.83;103278.59;5089622;27;46892;-78
2022/01/26 10:26:03;;;;;;;;;47.00;31.75;;;;;7.19;62.61;103283.19;5084249;27;45559;-77
2022/01/26 10:28:49;;;;;;;;;58.25;43.25;;;;;7.25;62.62;103288.88;5099083;27;45563;-77
2022/01/26 10:31:15;;;;;;;;;65.00;44.50;;;;;7.26;62.72;103272.28;5090915;27;45579;-81
2022/01/26 10:33:40;;;;;;;;;66.50;46.75;;;;;7.29;62.53;103270.75;5106253;27;45543;-78
2022/01/26 10:36:06;;;;;;;;;71.25;50.00;;;;;7.29;62.60;103257.59;5100709;27;45315;-79
2022/01/26 10:38:31;;;;;;;;;58.50;44.25;;;;;7.35;62.61;103273.78;5097509;27;54331;-77
2022/01/26 10:41:00;;;;;;;;;54.00;43.25;;;;;7.39;62.43;103287.09;5092400;27;45467;-78
2022/01/26 10:43:26;;;;;;;;;71.25;46.00;;;;;7.39;62.44;103298.53;5113967;27;47858;-79
2022/01/26 10:46:02;;;;;;;;;72.00;48.50;;;;;7.40;62.56;103284.56;5111117;27;45451;-79
2022/01/26 10:48:55;;;;;;;;;64.50;44.25;;;;;7.42;62.39;103280.34;5103649;27;45436;-78
2022/01/26 10:52:06;;;;;;;;;68.25;45.50;;;;;7.43;62.28;103282.16;5107305;27;45611;-77
2022/01/26 10:54:17;;;;;;;;;65.75;41.75;;;;;7.45;62.43;103287.50;5097606;27;46730;-76
2022/01/26 10:56:43;;;;;;;;;59.00;43.00;;;;;7.44;62.51;103252.41;5110923;27;45532;-76
2022/01/26 10:59:08;;;;;;;;;69.75;46.50;;;;;7.48;62.54;103264.03;5065393;27;46024;-76
2022/01/26 11:01:34;;;;;;;;;67.25;47.75;;;;;7.47;62.35;103254.34;5072527;27;45637;-78
2022/01/26 11:04:00;;;;;;;;;64.25;46.00;;;;;7.48;62.71;103267.56;5093392;27;45473;-77
2022/01/26 11:06:25;;;;;;;;;65.00;45.50;;;;;7.52;62.61;103266.97;5090310;27;58115;-76
2022/01/26 11:08:51;;;;;;;;;73.50;45.75;;;;;7.52;62.14;103263.41;5088277;27;49689;-78
2022/01/26 11:11:23;;;;;;;;;63.00;46.75;;;;;7.54;62.34;103259.16;5092283;27;45506;-77
2022/01/26 11:13:48;;;;;;;;;66.00;49.75;;;;;7.53;62.50;103253.00;5105353;27;45707;-78
2022/01/26 11:16:15;;;;;;;;;63.50;42.25;;;;;7.54;62.06;103251.28;5088962;27;45431;-77
2022/01/26 11:18:47;;;;;;;;;59.75;46.25;;;;;7.56;62.37;103253.19;5100015;27;45648;-77
2022/01/26 11:21:25;;;;;;;;;60.25;43.75;;;;;7.57;62.15;103243.59;5089177;27;45651;-76
2022/01/26 11:23:51;;;;;;;;;68.25;46.00;;;;;7.59;62.24;103232.34;5103058;27;46091;-75
2022/01/26 11:26:23;;;;;;;;;62.25;46.00;;;;;7.60;62.40;103222.72;5106289;27;45524;-75
2022/01/26 11:28:48;;;;;;;;;64.25;42.50;;;;;7.69;62.37;103236.44;5098328;27;45537;-74
2022/01/26 11:31:17;;;;;;;;;59.25;43.00;;;;;7.71;62.44;103242.69;5098396;27;45327;-75
2022/01/26 11:33:43;;;;;;;;;59.50;41.50;;;;;7.73;62.27;103246.34;5106330;27;46692;-76
2022/01/26 11:36:08;;;;;;;;;61.00;41.50;;;;;7.77;62.73;103237.81;5081461;27;45498;-75
2022/01/26 11:47:08;;;;;;;;;67.00;42.25;;;;;7.86;62.17;103229.56;5105709;27;45832;-77
2022/01/26 11:49:38;;;;;;;;;67.75;45.75;;;;;7.82;62.37;103211.78;5088236;27;46536;-76
2022/01/26 11:52:05;;;;;;;;;68.75;46.25;;;;;7.86;62.45;103212.06;5111242;27;45592;-75
2022/01/26 11:54:41;;;;;;;;;63.25;48.75;;;;;7.83;62.53;103193.50;5112794;27;46703;-74
2022/01/26 11:57:12;;;;;;;;;61.50;44.50;;;;;7.87;62.43;103202.44;5113045;27;45379;-74
2022/01/26 11:59:44;;;;;;;;;68.00;46.00;;;;;7.86;62.53;103200.63;5107806;27;45389;-76
2022/01/26 12:05:02;;;;;;;;;63.50;49.50;;;;;7.81;62.40;103186.31;5107831;27;46407;-76
2022/01/26 12:07:28;;;;;;;;;66.00;46.50;;;;;7.77;62.46;103182.56;5102867;27;45532;-75
2022/01/26 12:09:56;;;;;;;;;65.00;47.25;;;;;7.82;62.21;103186.38;5110530;27;45548;-77
2022/01/26 12:12:22;;;;;;;;;65.00;46.25;;;;;7.81;62.23;103187.22;5114280;27;45673;-76
2022/01/26 12:15:21;;;;;;;;;68.50;46.00;;;;;7.82;62.22;103180.22;5112387;27;45711;-75
2022/01/26 12:18:15;;;;;;;;;62.00;43.25;;;;;7.82;62.20;103185.47;5065361;27;45637;-77
2022/01/26 12:34:33;;;;;;;;;71.25;49.50;;;;;7.84;62.44;103168.09;5107589;27;45228;-75
2022/01/26 12:42:22;;;;;;;;;61.25;44.75;;;;;7.85;62.56;103193.56;5114982;27;45292;-75
2022/01/26 12:44:58;;;;;;;;;74.75;51.50;;;;;7.87;62.38;103189.28;5086441;27;45521;-77
2022/01/26 12:47:26;;;;;;;;;68.25;48.00;;;;;7.88;62.46;103192.03;5111019;27;47187;-76
2022/01/26 12:49:51;;;;;;;;;68.00;49.00;;;;;7.90;62.14;103201.75;5073567;27;45501;-75
2022/01/26 12:52:17;;;;;;;;;72.00;53.50;;;;;7.90;62.46;103201.75;5094439;27;57363;-75
2022/01/26 12:54:46;;;;;;;;;70.25;54.00;;;;;7.88;62.64;103197.31;5074613;27;45412;-75
2022/01/26 12:57:13;;;;;;;;;73.75;52.75;;;;;7.91;62.60;103191.31;5099247;27;46053;-75
2022/01/26 12:59:38;;;;;;;;;70.50;51.50;;;;;7.92;62.61;103185.22;5106475;27;45462;-77
2022/01/26 13:02:04;;;;;;;;;70.75;50.25;;;;;7.90;62.15;103184.22;5115006;27;45537;-75
2022/01/26 13:04:29;;;;;;;;;66.25;51.50;;;;;7.88;62.32;103183.22;5083301;27;45596;-77
2022/01/26 13:06:55;;;;;;;;;74.25;48.25;;;;;7.91;62.50;103182.50;5083835;27;61611;-75
2022/01/26 13:09:29;;;;;;;;;67.25;50.50;;;;;7.81;62.76;103155.66;5085760;27;45454;-74
2022/01/26 13:11:58;;;;;;;;;66.00;48.50;;;;;7.86;62.45;103164.72;5110775;27;45430;-77
2022/01/26 13:14:44;;;;;;;;;62.25;43.25;;;;;7.91;62.49;103174.63;5112218;27;45526;-75
2022/01/26 13:25:19;;;;;;;;;72.25;48.25;;;;;7.74;63.01;103164.00;5110148;27;45495;-75
2022/01/26 13:28:06;;;;;;;;;74.00;53.50;;;;;7.75;62.97;103171.06;5107826;27;47579;-77
2022/01/26 13:31:05;;;;;;;;;71.50;54.50;;;;;7.72;62.89;103155.09;5112949;27;45593;-76
2022/01/26 13:41:42;;;;;;;;;72.00;52.50;;;;;7.72;63.11;103160.34;5092059;27;45509;-75
2022/01/26 13:55:04;;;;;;;;;76.50;50.25;;;;;7.65;63.00;103157.28;5088588;27;45480;-75
2022/01/26 14:00:07;;;;;;;;;67.75;45.00;;;;;7.66;63.01;103160.00;5107990;27;45729;-75